Time;durP1;ratioP1;P1;durP2;ratioP2;P2;SDS_P1;SDS_P2;PMS_P1;PMS_P2;Temp;Humidity;BMP_temperature;BMP_pressure;BME280_temperature;BME280_humidity;BME280_pressure;Samples;Min_cycle;Max_cycle;Signal;HPM_P1;HPM_P2
2022/06/03 00:01:36;;;;;;;;;;;14.50;57.60;;;;;;4134712;28;19928;-56
2022/06/03 00:03:46;;;;;;;;;;;14.50;57.60;;;;;;4125488;28;19928;-56
2022/06/03 00:05:53;;;;;;;;;;;14.50;57.70;;;;;;4120883;28;19924;-55
2022/06/03 00:07:55;;;;;;;;;;;14.50;57.60;;;;;;4130371;28;20420;-54
2022/06/03 00:10:02;;;;;;;;;;;14.50;57.70;;;;;;4131239;28;19935;-54
2022/06/03 00:12:23;;;;;;;;;;;14.50;57.70;;;;;;4128738;28;19935;-55
2022/06/03 00:14:28;;;;;;;;;;;14.50;57.70;;;;;;4125535;28;20317;-53
2022/06/03 00:16:41;;;;;;;;;;;14.50;57.80;;;;;;4114576;28;20323;-55
2022/06/03 00:18:55;;;;;;;;;;;14.50;57.80;;;;;;4120539;28;19983;-55
2022/06/03 00:21:00;;;;;;;;;;;14.50;57.80;;;;;;4115756;28;21070;-52
2022/06/03 00:23:32;;;;;;;;;;;14.50;57.70;;;;;;4120124;28;20386;-58
2022/06/03 00:25:47;;;;;;;;;;;14.50;57.80;;;;;;4128677;28;19928;-55
2022/06/03 00:27:49;;;;;;;;;;;14.40;57.90;;;;;;4122418;28;19924;-56
2022/06/03 00:30:00;;;;;;;;;;;14.40;57.90;;;;;;4131726;28;20023;-52
2022/06/03 00:32:10;;;;;;;;;;;14.40;58.00;;;;;;4135327;28;19928;-52
2022/06/03 00:34:38;;;;;;;;;;;14.40;58.10;;;;;;4110883;28;20521;-53
2022/06/03 00:36:58;;;;;;;;;;;14.40;57.90;;;;;;4124844;28;20414;-56
2022/06/03 00:39:17;;;;;;;;;;;14.40;58.10;;;;;;4120963;28;19932;-52
2022/06/03 00:41:28;;;;;;;;;;;14.40;58.00;;;;;;4128928;28;20840;-52
2022/06/03 00:43:41;;;;;;;;;;;14.40;58.10;;;;;;4125834;28;20562;-56
2022/06/03 00:45:45;;;;;;;;;;;14.40;58.00;;;;;;4125900;28;20677;-56
2022/06/03 00:47:59;;;;;;;;;;;14.40;58.10;;;;;;4124196;28;19941;-54
2022/06/03 00:50:00;;;;;;;;;;;14.40;58.10;;;;;;4123101;28;20305;-54
2022/06/03 00:52:20;;;;;;;;;;;14.40;58.30;;;;;;4122682;28;19936;-53
2022/06/03 00:54:37;;;;;;;;;;;14.40;58.10;;;;;;4116069;28;20249;-54
2022/06/03 00:56:39;;;;;;;;;;;14.40;58.30;;;;;;4117496;28;20007;-56
2022/06/03 00:58:46;;;;;;;;;;;14.40;58.10;;;;;;4124562;28;20515;-51
2022/06/03 01:00:54;;;;;;;;;;;14.40;58.20;;;;;;4127522;28;20447;-54
2022/06/03 01:03:11;;;;;;;;;;;14.40;58.20;;;;;;4136243;28;20038;-56
2022/06/03 01:05:20;;;;;;;;;;;14.40;58.40;;;;;;4128005;28;19932;-55
2022/06/03 01:07:29;;;;;;;;;;;14.40;58.20;;;;;;4131321;28;20006;-55
2022/06/03 01:09:34;;;;;;;;;;;14.40;58.30;;;;;;4133013;28;19928;-55
2022/06/03 01:12:00;;;;;;;;;;;14.30;58.20;;;;;;4127672;28;20046;-58
2022/06/03 01:14:02;;;;;;;;;;;14.30;58.20;;;;;;4122885;28;19976;-54
2022/06/03 01:16:07;;;;;;;;;;;14.30;58.30;;;;;;4136147;28;20388;-52
2022/06/03 01:18:15;;;;;;;;;;;14.30;58.40;;;;;;4130321;28;20299;-56
2022/06/03 01:20:29;;;;;;;;;;;14.30;58.50;;;;;;4128579;28;21339;-56
2022/06/03 01:22:49;;;;;;;;;;;14.30;58.50;;;;;;4129944;28;19929;-56
2022/06/03 01:25:21;;;;;;;;;;;14.30;58.50;;;;;;4136763;28;21058;-55
2022/06/03 01:27:35;;;;;;;;;;;14.30;58.40;;;;;;4130068;28;20043;-56
2022/06/03 01:29:48;;;;;;;;;;;14.30;58.40;;;;;;4127997;28;19924;-55
2022/06/03 01:31:59;;;;;;;;;;;14.30;58.50;;;;;;4130904;28;20047;-55
2022/06/03 01:34:03;;;;;;;;;;;14.30;58.50;;;;;;4130508;28;19928;-51
2022/06/03 01:36:11;;;;;;;;;;;14.30;58.70;;;;;;4132910;28;20389;-56
2022/06/03 01:38:32;;;;;;;;;;;14.30;58.80;;;;;;4137054;28;20413;-54
2022/06/03 01:40:36;;;;;;;;;;;14.30;58.80;;;;;;4130450;28;20318;-57
2022/06/03 01:42:41;;;;;;;;;;;14.30;58.60;;;;;;4134006;28;19929;-53
2022/06/03 01:44:53;;;;;;;;;;;14.30;58.60;;;;;;4132384;28;20051;-56
2022/06/03 01:47:13;;;;;;;;;;;14.30;58.70;;;;;;4152339;28;20037;-50
2022/06/03 01:49:21;;;;;;;;;;;14.30;58.60;;;;;;4133332;28;19929;-56
2022/06/03 01:51:41;;;;;;;;;;;14.30;58.60;;;;;;4138479;28;19929;-54
2022/06/03 01:53:48;;;;;;;;;;;14.30;58.60;;;;;;4126804;28;19933;-54
2022/06/03 01:56:07;;;;;;;;;;;14.30;58.80;;;;;;4137320;28;20433;-55
2022/06/03 01:58:21;;;;;;;;;;;14.30;58.80;;;;;;4128793;28;20415;-55
2022/06/03 02:00:25;;;;;;;;;;;14.30;58.80;;;;;;4126300;28;20105;-57
2022/06/03 02:02:40;;;;;;;;;;;14.30;58.70;;;;;;4134446;28;19930;-54
2022/06/03 02:04:55;;;;;;;;;;;14.30;58.60;;;;;;4131318;28;20031;-57
2022/06/03 02:07:15;;;;;;;;;;;14.30;58.50;;;;;;4129255;28;19924;-53
2022/06/03 02:09:32;;;;;;;;;;;14.30;58.60;;;;;;4128125;28;19924;-55
2022/06/03 02:11:34;;;;;;;;;;;14.30;58.70;;;;;;4126401;28;20481;-56
2022/06/03 02:13:35;;;;;;;;;;;14.30;58.60;;;;;;4127748;28;19924;-56
2022/06/03 02:15:52;;;;;;;;;;;14.30;58.50;;;;;;4119929;28;20048;-56
2022/06/03 02:17:54;;;;;;;;;;;14.40;58.40;;;;;;4124795;28;20390;-57
2022/06/03 02:20:01;;;;;;;;;;;14.40;58.60;;;;;;4129988;28;21447;-55
2022/06/03 02:22:21;;;;;;;;;;;14.40;58.50;;;;;;4122318;28;19929;-57
2022/06/03 02:24:41;;;;;;;;;;;14.40;58.60;;;;;;4125863;28;20358;-56
2022/06/03 02:26:42;;;;;;;;;;;14.40;58.70;;;;;;4123253;28;20002;-56
2022/06/03 02:30:24;;;;;;;;;;;14.40;58.70;;;;;;4126963;28;20168;-56
2022/06/03 02:31:17;;;;;;;;;;;14.40;58.70;;;;;;4120198;28;19924;-57
2022/06/03 02:33:19;;;;;;;;;;;14.50;59.00;;;;;;4125371;28;19975;-53
2022/06/03 02:35:29;;;;;;;;;;;14.50;59.10;;;;;;4128919;28;20140;-54
2022/06/03 02:37:53;;;;;;;;;;;14.50;59.10;;;;;;4124412;28;19968;-55
2022/06/03 02:39:58;;;;;;;;;;;14.50;59.20;;;;;;4129264;28;19983;-51
2022/06/03 02:42:11;;;;;;;;;;;14.50;59.40;;;;;;4127863;28;20063;-54
2022/06/03 02:44:18;;;;;;;;;;;14.50;59.40;;;;;;4132499;28;19958;-53
2022/06/03 02:46:33;;;;;;;;;;;14.50;59.40;;;;;;4130906;28;19929;-55
2022/06/03 02:48:50;;;;;;;;;;;14.50;59.50;;;;;;4124970;28;20164;-54
2022/06/03 02:51:10;;;;;;;;;;;14.60;59.60;;;;;;4130874;28;19925;-54
2022/06/03 02:53:26;;;;;;;;;;;14.60;59.60;;;;;;4125640;28;19928;-56
2022/06/03 02:55:40;;;;;;;;;;;14.60;59.70;;;;;;4121235;28;20016;-57
2022/06/03 02:57:47;;;;;;;;;;;14.60;59.80;;;;;;4121917;28;20177;-56
2022/06/03 02:59:55;;;;;;;;;;;14.60;59.80;;;;;;4096314;28;20023;-55
2022/06/03 03:02:02;;;;;;;;;;;14.60;59.80;;;;;;4125495;28;19936;-56
2022/06/03 03:04:39;;;;;;;;;;;14.60;59.90;;;;;;4113113;28;20374;-56
2022/06/03 03:06:50;;;;;;;;;;;14.60;59.80;;;;;;4056910;28;20656;-57
2022/06/03 03:09:10;;;;;;;;;;;14.70;59.90;;;;;;4098090;28;20485;-54
2022/06/03 03:11:40;;;;;;;;;;;14.70;59.80;;;;;;4131073;28;20097;-56
2022/06/03 03:13:48;;;;;;;;;;;14.60;59.80;;;;;;4115502;28;19925;-55
2022/06/03 03:15:53;;;;;;;;;;;14.70;59.80;;;;;;4118929;28;20429;-56
2022/06/03 03:18:04;;;;;;;;;;;14.70;59.80;;;;;;4123392;28;19983;-56
2022/06/03 03:20:06;;;;;;;;;;;14.70;59.80;;;;;;4124663;28;19925;-56
2022/06/03 03:22:07;;;;;;;;;;;14.70;59.60;;;;;;4123511;28;20185;-57
2022/06/03 03:24:09;;;;;;;;;;;14.70;59.60;;;;;;4123372;28;19925;-55
2022/06/03 03:26:23;;;;;;;;;;;14.70;59.60;;;;;;4128846;28;20661;-54
2022/06/03 03:28:47;;;;;;;;;;;14.70;59.50;;;;;;4120683;28;20345;-56
2022/06/03 03:30:49;;;;;;;;;;;14.80;59.50;;;;;;4119845;28;19928;-57
2022/06/03 03:33:09;;;;;;;;;;;14.80;59.50;;;;;;4117463;28;20171;-57
2022/06/03 03:35:10;;;;;;;;;;;14.80;59.50;;;;;;4115678;28;20587;-58
2022/06/03 03:37:30;;;;;;;;;;;14.80;59.40;;;;;;4122699;28;19932;-57
2022/06/03 03:39:47;;;;;;;;;;;14.80;59.30;;;;;;4121051;28;19929;-56
2022/06/03 03:42:07;;;;;;;;;;;14.80;59.30;;;;;;4111578;28;19946;-57
2022/06/03 03:44:08;;;;;;;;;;;14.80;59.20;;;;;;4125433;28;20495;-54
2022/06/03 03:46:28;;;;;;;;;;;14.80;59.20;;;;;;4125118;28;20386;-56
2022/06/03 03:48:38;;;;;;;;;;;14.80;59.20;;;;;;4115415;28;20123;-57
2022/06/03 03:50:49;;;;;;;;;;;14.80;59.40;;;;;;4115903;28;20276;-56
2022/06/03 03:53:09;;;;;;;;;;;14.80;59.40;;;;;;4116700;28;19928;-57
2022/06/03 03:55:13;;;;;;;;;;;14.80;59.70;;;;;;4121092;28;20492;-54
2022/06/03 03:57:17;;;;;;;;;;;14.80;59.90;;;;;;4125703;28;20403;-53
2022/06/03 03:59:39;;;;;;;;;;;14.80;60.00;;;;;;4117943;28;20424;-55
2022/06/03 04:01:50;;;;;;;;;;;14.80;60.20;;;;;;4123769;28;21107;-57
2022/06/03 04:04:01;;;;;;;;;;;14.80;60.40;;;;;;4118677;28;19932;-54
2022/06/03 04:06:02;;;;;;;;;;;14.80;60.50;;;;;;4114036;28;20140;-55
2022/06/03 04:08:07;;;;;;;;;;;14.90;60.60;;;;;;4126536;28;19925;-56
2022/06/03 04:10:26;;;;;;;;;;;14.90;60.70;;;;;;4126718;28;19929;-56
2022/06/03 04:12:46;;;;;;;;;;;14.90;60.80;;;;;;4120210;28;20829;-54
2022/06/03 04:14:56;;;;;;;;;;;14.90;61.00;;;;;;4115346;28;19936;-55
2022/06/03 04:17:27;;;;;;;;;;;14.90;61.10;;;;;;4114448;28;19929;-53
2022/06/03 04:19:28;;;;;;;;;;;14.90;61.20;;;;;;4121493;28;19933;-57
2022/06/03 04:21:30;;;;;;;;;;;14.90;61.30;;;;;;4112146;28;19972;-55
2022/06/03 04:23:37;;;;;;;;;;;15.00;61.30;;;;;;4120794;28;19991;-55
2022/06/03 04:25:39;;;;;;;;;;;15.00;61.40;;;;;;4121541;28;19929;-56
2022/06/03 04:27:40;;;;;;;;;;;15.00;61.50;;;;;;4124313;28;20420;-53
2022/06/03 04:30:01;;;;;;;;;;;15.00;61.40;;;;;;4120027;28;20042;-54
2022/06/03 04:32:03;;;;;;;;;;;15.00;61.40;;;;;;4139853;28;20723;-52
2022/06/03 04:34:20;;;;;;;;;;;15.10;61.50;;;;;;4122968;28;20023;-52
2022/06/03 04:36:39;;;;;;;;;;;15.00;61.40;;;;;;4122126;28;20425;-56
2022/06/03 04:38:41;;;;;;;;;;;15.10;61.40;;;;;;4130892;28;20063;-56
2022/06/03 04:40:46;;;;;;;;;;;15.10;61.40;;;;;;4124503;28;19929;-53
2022/06/03 04:43:10;;;;;;;;;;;15.10;61.40;;;;;;4122676;28;19940;-57
2022/06/03 04:45:24;;;;;;;;;;;15.10;61.40;;;;;;4118286;28;19929;-56
2022/06/03 04:47:28;;;;;;;;;;;15.10;61.40;;;;;;4100716;28;21192;-54
2022/06/03 04:49:30;;;;;;;;;;;15.10;61.40;;;;;;4120233;28;19935;-56
2022/06/03 04:51:57;;;;;;;;;;;15.10;61.30;;;;;;4129112;28;20046;-52
2022/06/03 04:54:05;;;;;;;;;;;15.20;61.50;;;;;;4116202;28;20519;-58
2022/06/03 04:56:25;;;;;;;;;;;15.20;61.50;;;;;;4104433;28;20422;-57
2022/06/03 04:58:46;;;;;;;;;;;15.20;61.50;;;;;;4126886;28;19947;-55
2022/06/03 05:00:58;;;;;;;;;;;15.20;61.50;;;;;;4126415;28;19934;-56
2022/06/03 05:03:18;;;;;;;;;;;15.20;61.40;;;;;;4130507;28;20493;-57
2022/06/03 05:05:38;;;;;;;;;;;15.20;61.40;;;;;;4123576;28;20803;-53
2022/06/03 05:07:58;;;;;;;;;;;15.30;61.40;;;;;;4120964;28;19958;-56
2022/06/03 05:10:17;;;;;;;;;;;15.30;61.30;;;;;;4124697;28;19924;-55
2022/06/03 05:12:40;;;;;;;;;;;15.30;61.30;;;;;;4127890;28;21285;-53
2022/06/03 05:14:52;;;;;;;;;;;15.30;61.30;;;;;;4130656;28;20460;-55
2022/06/03 05:17:10;;;;;;;;;;;15.30;61.40;;;;;;4126892;28;20806;-54
2022/06/03 05:19:30;;;;;;;;;;;15.30;61.20;;;;;;4121237;28;20365;-56
2022/06/03 05:21:37;;;;;;;;;;;15.30;61.20;;;;;;4123288;28;19928;-55
2022/06/03 05:23:50;;;;;;;;;;;15.30;61.20;;;;;;4122573;28;20049;-55
2022/06/03 05:26:10;;;;;;;;;;;15.40;61.20;;;;;;4122052;28;20512;-57
2022/06/03 05:28:30;;;;;;;;;;;15.30;61.10;;;;;;4123679;28;21259;-53
2022/06/03 05:30:37;;;;;;;;;;;15.40;61.30;;;;;;4127960;28;20511;-54
2022/06/03 05:32:39;;;;;;;;;;;15.40;61.20;;;;;;4129693;28;20190;-55
2022/06/03 05:34:46;;;;;;;;;;;15.40;61.10;;;;;;4120497;28;20015;-55
2022/06/03 05:37:00;;;;;;;;;;;15.40;61.00;;;;;;4124539;28;19981;-56
2022/06/03 05:39:16;;;;;;;;;;;15.40;61.00;;;;;;4124438;28;20549;-55
2022/06/03 05:44:11;;;;;;;;;;;15.40;60.90;;;;;;4117909;28;19925;-54
2022/06/03 05:46:18;;;;;;;;;;;15.50;61.00;;;;;;4120915;28;20658;-57
2022/06/03 05:48:35;;;;;;;;;;;15.50;60.90;;;;;;4124290;28;20394;-51
2022/06/03 05:50:39;;;;;;;;;;;15.50;60.90;;;;;;4120037;28;20606;-55
2022/06/03 05:52:50;;;;;;;;;;;15.50;60.80;;;;;;4104604;28;19991;-56
2022/06/03 05:55:04;;;;;;;;;;;15.50;60.80;;;;;;4126059;28;19931;-56
2022/06/03 05:57:24;;;;;;;;;;;15.50;60.70;;;;;;4124123;28;20691;-56
2022/06/03 05:59:40;;;;;;;;;;;15.50;60.60;;;;;;4116895;28;20058;-57
2022/06/03 06:01:48;;;;;;;;;;;15.50;61.30;;;;;;4124770;28;19924;-53
2022/06/03 06:03:55;;;;;;;;;;;15.50;60.60;;;;;;4123846;28;19932;-55
2022/06/03 06:06:15;;;;;;;;;;;15.50;60.60;;;;;;4119851;28;19929;-54
2022/06/03 06:08:25;;;;;;;;;;;15.60;60.60;;;;;;4114634;28;19944;-56
2022/06/03 06:10:33;;;;;;;;;;;15.60;61.10;;;;;;4123987;28;20542;-56
2022/06/03 06:13:01;;;;;;;;;;;15.60;60.50;;;;;;4128732;28;19956;-54
2022/06/03 06:15:08;;;;;;;;;;;15.60;60.50;;;;;;4099408;28;19929;-54
2022/06/03 06:17:28;;;;;;;;;;;15.60;60.40;;;;;;4125402;28;19952;-56
2022/06/03 06:19:38;;;;;;;;;;;15.60;60.40;;;;;;4118653;28;20942;-56
2022/06/03 06:21:46;;;;;;;;;;;15.60;60.40;;;;;;4120520;28;21394;-53
2022/06/03 06:24:01;;;;;;;;;;;15.60;60.50;;;;;;4124609;28;19935;-56
2022/06/03 06:26:08;;;;;;;;;;;15.70;60.50;;;;;;4117846;28;20976;-57
2022/06/03 06:28:25;;;;;;;;;;;15.70;60.70;;;;;;4123121;28;19925;-56
2022/06/03 06:30:35;;;;;;;;;;;15.70;60.80;;;;;;4123370;28;19929;-57
2022/06/03 06:32:45;;;;;;;;;;;15.70;60.80;;;;;;4120250;28;19975;-54
2022/06/03 06:34:47;;;;;;;;;;;15.70;60.90;;;;;;4112548;28;19998;-56
2022/06/03 06:36:56;;;;;;;;;;;15.70;61.10;;;;;;4121382;28;19947;-54
2022/06/03 06:39:04;;;;;;;;;;;15.70;61.20;;;;;;4124806;28;20872;-55
2022/06/03 06:41:11;;;;;;;;;;;15.70;61.40;;;;;;4130987;28;20397;-55
2022/06/03 06:43:31;;;;;;;;;;;15.80;61.60;;;;;;4131224;28;19982;-54
2022/06/03 06:45:44;;;;;;;;;;;15.80;61.60;;;;;;4126323;28;20613;-54
2022/06/03 06:48:04;;;;;;;;;;;15.80;61.70;;;;;;4119853;28;20130;-58
2022/06/03 06:50:12;;;;;;;;;;;15.80;61.60;;;;;;4116206;28;20415;-56
2022/06/03 06:52:25;;;;;;;;;;;15.80;61.70;;;;;;4112453;28;20013;-56
2022/06/03 06:54:45;;;;;;;;;;;15.80;61.50;;;;;;4121107;28;20626;-55
2022/06/03 06:56:54;;;;;;;;;;;15.90;61.60;;;;;;4121085;28;20045;-54
2022/06/03 06:59:02;;;;;;;;;;;15.90;61.50;;;;;;4120054;28;20333;-54
2022/06/03 07:01:05;;;;;;;;;;;15.80;61.40;;;;;;4113345;28;20394;-56
2022/06/03 07:03:17;;;;;;;;;;;15.80;61.20;;;;;;4116119;28;19925;-55
2022/06/03 07:05:25;;;;;;;;;;;15.80;61.20;;;;;;4113520;28;20464;-55
2022/06/03 07:07:34;;;;;;;;;;;15.80;61.00;;;;;;4124866;28;19983;-56
2022/06/03 07:09:58;;;;;;;;;;;15.80;61.00;;;;;;4124560;28;20528;-55
2022/06/03 07:12:29;;;;;;;;;;;15.80;60.90;;;;;;4118356;28;19924;-55
2022/06/03 07:14:50;;;;;;;;;;;15.80;60.80;;;;;;4113285;28;19928;-55
2022/06/03 07:19:47;;;;;;;;;;;15.80;60.80;;;;;;4117568;28;19946;-54
2022/06/03 07:22:09;;;;;;;;;;;15.80;60.80;;;;;;4128726;28;19925;-55
2022/06/03 07:24:22;;;;;;;;;;;15.80;60.80;;;;;;4103697;28;20022;-55
2022/06/03 07:26:35;;;;;;;;;;;15.80;60.80;;;;;;4121199;28;19935;-56
2022/06/03 07:28:48;;;;;;;;;;;15.80;60.80;;;;;;4120436;28;20198;-55
2022/06/03 07:30:54;;;;;;;;;;;15.80;60.80;;;;;;4114765;28;20436;-55
2022/06/03 07:33:21;;;;;;;;;;;15.80;60.90;;;;;;4129622;28;19924;-58
2022/06/03 07:35:31;;;;;;;;;;;15.80;60.90;;;;;;4096349;28;19991;-57
2022/06/03 07:37:40;;;;;;;;;;;15.80;60.80;;;;;;4119676;28;19924;-56
2022/06/03 07:39:57;;;;;;;;;;;15.80;60.90;;;;;;4121890;28;19929;-58
2022/06/03 07:42:04;;;;;;;;;;;15.80;60.90;;;;;;4122858;28;19936;-57
2022/06/03 07:44:09;;;;;;;;;;;15.80;60.80;;;;;;4119255;28;20477;-55
2022/06/03 07:46:14;;;;;;;;;;;15.80;61.00;;;;;;4120661;28;19929;-58
2022/06/03 07:48:18;;;;;;;;;;;15.80;61.00;;;;;;4128919;28;20022;-56
2022/06/03 07:50:21;;;;;;;;;;;15.80;61.00;;;;;;4108045;28;19929;-56
2022/06/03 07:52:32;;;;;;;;;;;15.80;61.00;;;;;;4121291;28;19941;-56
2022/06/03 07:54:35;;;;;;;;;;;15.80;61.00;;;;;;4136998;28;19935;-56
2022/06/03 07:56:37;;;;;;;;;;;15.80;61.00;;;;;;4117232;28;20041;-55
2022/06/03 07:58:39;;;;;;;;;;;15.80;61.00;;;;;;4125231;28;20615;-55
2022/06/03 08:00:43;;;;;;;;;;;15.70;60.90;;;;;;4107719;28;19928;-56
2022/06/03 08:02:45;;;;;;;;;;;15.70;60.90;;;;;;4119150;28;19932;-56
2022/06/03 08:04:48;;;;;;;;;;;15.70;60.90;;;;;;4129507;28;20019;-57
2022/06/03 08:11:34;;;;;;;;;;;15.70;60.90;;;;;;4120677;28;20537;-55
2022/06/03 08:13:39;;;;;;;;;;;15.70;60.90;;;;;;4112109;28;20334;-57
2022/06/03 08:15:45;;;;;;;;;;;15.70;60.90;;;;;;4106362;28;20340;-56
2022/06/03 08:17:48;;;;;;;;;;;15.70;60.80;;;;;;4101455;28;19932;-56
2022/06/03 08:19:49;;;;;;;;;;;15.70;60.80;;;;;;4103306;28;19931;-57
2022/06/03 08:21:53;;;;;;;;;;;15.70;60.80;;;;;;4093481;28;19956;-57
2022/06/03 08:23:56;;;;;;;;;;;15.70;60.70;;;;;;4105193;28;21437;-56
2022/06/03 08:25:59;;;;;;;;;;;15.70;60.80;;;;;;4102294;28;19924;-54
2022/06/03 08:28:01;;;;;;;;;;;15.70;60.70;;;;;;4106259;28;20461;-56
2022/06/03 08:30:08;;;;;;;;;;;15.70;60.80;;;;;;4108733;28;19925;-56
2022/06/03 08:32:29;;;;;;;;;;;15.70;60.70;;;;;;4104806;28;21739;-56
2022/06/03 08:34:37;;;;;;;;;;;15.70;60.70;;;;;;4112084;28;20032;-55
2022/06/03 08:36:40;;;;;;;;;;;15.70;60.60;;;;;;4108003;28;20401;-57
2022/06/03 08:38:48;;;;;;;;;;;15.70;60.60;;;;;;4094098;28;19968;-55
2022/06/03 08:41:08;;;;;;;;;;;15.70;60.60;;;;;;4101579;28;19925;-57
2022/06/03 08:43:47;;;;;;;;;;;15.70;60.60;;;;;;4103816;28;20820;-57
2022/06/03 08:45:54;;;;;;;;;;;15.70;60.60;;;;;;4076096;28;19936;-58
2022/06/03 08:47:57;;;;;;;;;;;15.70;60.60;;;;;;4084157;28;20461;-56
2022/06/03 08:50:08;;;;;;;;;;;15.70;60.50;;;;;;4092172;28;19957;-56
2022/06/03 08:52:10;;;;;;;;;;;15.70;60.50;;;;;;4109784;28;19948;-56
2022/06/03 08:54:28;;;;;;;;;;;15.70;60.50;;;;;;4104365;28;19936;-56
2022/06/03 08:56:36;;;;;;;;;;;15.70;60.50;;;;;;4110214;28;19925;-57
2022/06/03 08:58:43;;;;;;;;;;;15.70;60.50;;;;;;4103865;28;19937;-56
2022/06/03 09:01:08;;;;;;;;;;;15.70;60.50;;;;;;4098910;28;19924;-56
2022/06/03 09:03:14;;;;;;;;;;;15.70;60.50;;;;;;4105456;28;20303;-55
2022/06/03 09:05:28;;;;;;;;;;;15.70;60.50;;;;;;4108078;28;19970;-56
2022/06/03 09:07:35;;;;;;;;;;;15.70;60.50;;;;;;4109843;28;20716;-56
2022/06/03 09:09:52;;;;;;;;;;;15.60;60.50;;;;;;4086199;28;19940;-56
2022/06/03 09:12:09;;;;;;;;;;;15.70;60.50;;;;;;4108347;28;19943;-56
2022/06/03 09:14:16;;;;;;;;;;;15.70;60.50;;;;;;4107108;28;19929;-55
2022/06/03 09:16:18;;;;;;;;;;;15.60;60.40;;;;;;4110004;28;20688;-54
2022/06/03 09:18:26;;;;;;;;;;;15.60;60.40;;;;;;4100014;28;19932;-56
2022/06/03 09:20:36;;;;;;;;;;;15.60;60.40;;;;;;4101255;28;20295;-55
2022/06/03 09:22:39;;;;;;;;;;;15.60;60.40;;;;;;4106577;28;19925;-55
2022/06/03 09:24:41;;;;;;;;;;;15.60;60.40;;;;;;4097714;28;19933;-56
2022/06/03 09:26:45;;;;;;;;;;;15.60;60.40;;;;;;4125756;28;19928;-53
2022/06/03 09:28:48;;;;;;;;;;;15.60;60.40;;;;;;4104785;28;19929;-53
2022/06/03 09:30:50;;;;;;;;;;;15.60;60.50;;;;;;4109281;28;19929;-56
2022/06/03 09:32:51;;;;;;;;;;;15.60;60.80;;;;;;4114044;28;20036;-56
2022/06/03 09:34:57;;;;;;;;;;;15.60;60.50;;;;;;4100647;28;20357;-55
2022/06/03 09:36:59;;;;;;;;;;;15.60;60.60;;;;;;4106272;28;19928;-55
2022/06/03 09:39:08;;;;;;;;;;;15.60;60.50;;;;;;4109726;28;19936;-55
2022/06/03 09:41:10;;;;;;;;;;;15.60;60.50;;;;;;4111979;28;20369;-53
2022/06/03 09:43:16;;;;;;;;;;;15.60;60.60;;;;;;4105787;28;19996;-56
2022/06/03 09:45:20;;;;;;;;;;;15.60;60.50;;;;;;4107447;28;20459;-51
2022/06/03 09:47:23;;;;;;;;;;;15.60;60.60;;;;;;4107911;28;20027;-56
2022/06/03 09:49:25;;;;;;;;;;;15.50;60.60;;;;;;4111069;28;20849;-54
2022/06/03 09:53:49;;;;;;;;;;;15.50;60.60;;;;;;4109292;28;19929;-58
2022/06/03 09:55:56;;;;;;;;;;;15.50;60.70;;;;;;4102530;28;19944;-52
2022/06/03 09:57:59;;;;;;;;;;;15.50;60.70;;;;;;4104049;28;19951;-54
2022/06/03 10:00:01;;;;;;;;;;;15.50;60.70;;;;;;4108639;28;19928;-56
2022/06/03 10:02:04;;;;;;;;;;;15.50;60.70;;;;;;4109045;28;19929;-53
2022/06/03 10:04:07;;;;;;;;;;;15.50;60.70;;;;;;4105443;28;20436;-56
2022/06/03 10:06:42;;;;;;;;;;;15.50;60.60;;;;;;4101544;28;20075;-55
2022/06/03 10:13:11;;;;;;;;;;;15.60;60.80;;;;;;4106973;28;20487;-56
2022/06/03 10:17:33;;;;;;;;;;;15.50;60.70;;;;;;4111258;28;19929;-55
2022/06/03 10:19:34;;;;;;;;;;;15.50;60.80;;;;;;4108222;28;20572;-56
2022/06/03 10:21:36;;;;;;;;;;;15.50;60.70;;;;;;4108284;28;19929;-56
2022/06/03 10:23:57;;;;;;;;;;;15.50;60.80;;;;;;4109221;28;19925;-56
2022/06/03 10:26:02;;;;;;;;;;;15.50;60.80;;;;;;4107193;28;20136;-55
2022/06/03 10:28:04;;;;;;;;;;;15.50;60.80;;;;;;4109708;28;19932;-56
2022/06/03 10:30:06;;;;;;;;;;;15.50;60.80;;;;;;4113013;28;20363;-55
2022/06/03 10:32:08;;;;;;;;;;;15.50;60.90;;;;;;4103837;28;20343;-54
2022/06/03 10:34:11;;;;;;;;;;;15.50;60.80;;;;;;4105875;28;19929;-54
2022/06/03 10:36:13;;;;;;;;;;;15.50;60.80;;;;;;4115132;28;19925;-56
2022/06/03 10:38:19;;;;;;;;;;;15.50;60.80;;;;;;4107167;28;20503;-59
2022/06/03 10:40:21;;;;;;;;;;;15.50;60.80;;;;;;4107493;28;20438;-56
2022/06/03 10:42:23;;;;;;;;;;;15.50;60.80;;;;;;4110534;28;20002;-55
2022/06/03 10:44:27;;;;;;;;;;;15.50;60.80;;;;;;4110996;28;19933;-56
2022/06/03 10:46:28;;;;;;;;;;;15.50;60.80;;;;;;4108078;28;20355;-57
2022/06/03 10:48:32;;;;;;;;;;;15.50;61.50;;;;;;4105624;28;19936;-56
2022/06/03 10:50:35;;;;;;;;;;;15.50;60.80;;;;;;4115379;28;20389;-54
2022/06/03 11:02:04;;;;;;;;;;;15.50;60.90;;;;;;4109757;28;19925;-56
2022/06/03 11:04:06;;;;;;;;;;;15.50;60.80;;;;;;4105884;28;20528;-56
2022/06/03 11:06:15;;;;;;;;;;;15.50;60.90;;;;;;4105896;28;20011;-58
2022/06/03 11:08:17;;;;;;;;;;;15.50;60.90;;;;;;4105891;28;19929;-55
2022/06/03 11:10:26;;;;;;;;;;;15.50;60.90;;;;;;4115225;28;20034;-53
2022/06/03 11:12:29;;;;;;;;;;;15.50;60.90;;;;;;4110140;28;20514;-55
2022/06/03 11:14:30;;;;;;;;;;;15.50;61.00;;;;;;4107542;28;19929;-56
2022/06/03 11:16:32;;;;;;;;;;;15.50;60.90;;;;;;4105870;28;20213;-56
2022/06/03 11:18:34;;;;;;;;;;;15.50;61.00;;;;;;4113153;28;20307;-56
2022/06/03 11:20:39;;;;;;;;;;;15.40;60.90;;;;;;4105670;28;20000;-54
2022/06/03 11:22:43;;;;;;;;;;;15.50;60.90;;;;;;4106378;28;19924;-56
2022/06/03 11:24:50;;;;;;;;;;;15.50;60.80;;;;;;4112678;28;19925;-56
2022/06/03 11:26:52;;;;;;;;;;;15.50;60.90;;;;;;4114730;28;19925;-54
2022/06/03 11:28:57;;;;;;;;;;;15.50;60.90;;;;;;4103684;28;19966;-55
2022/06/03 11:31:04;;;;;;;;;;;15.50;60.80;;;;;;4104022;28;20030;-53
2022/06/03 11:33:10;;;;;;;;;;;15.40;60.80;;;;;;4106801;28;19951;-56
2022/06/03 11:35:16;;;;;;;;;;;15.40;60.90;;;;;;4110628;28;19929;-55
2022/06/03 11:37:19;;;;;;;;;;;15.50;60.90;;;;;;4111484;28;20391;-51
2022/06/03 11:39:24;;;;;;;;;;;15.40;60.90;;;;;;4106767;28;19929;-54
2022/06/03 11:41:28;;;;;;;;;;;15.40;60.90;;;;;;4105354;28;19987;-54
2022/06/03 11:43:34;;;;;;;;;;;15.40;60.90;;;;;;4106838;28;20552;-51
2022/06/03 11:45:42;;;;;;;;;;;15.40;60.90;;;;;;4110824;28;20334;-55
2022/06/03 11:48:01;;;;;;;;;;;15.40;60.80;;;;;;4105249;28;20260;-56
2022/06/03 11:50:05;;;;;;;;;;;15.40;60.90;;;;;;4113913;28;20446;-57
2022/06/03 11:52:06;;;;;;;;;;;15.40;61.00;;;;;;4110117;28;21676;-54
2022/06/03 11:54:11;;;;;;;;;;;15.40;60.90;;;;;;4106199;28;19928;-55
2022/06/03 11:56:13;;;;;;;;;;;15.40;60.80;;;;;;4106317;28;20319;-55
2022/06/03 11:58:22;;;;;;;;;;;15.40;60.90;;;;;;4113294;28;20326;-54
2022/06/03 12:00:25;;;;;;;;;;;15.40;60.80;;;;;;4113148;28;19929;-52
2022/06/03 12:02:32;;;;;;;;;;;15.40;60.90;;;;;;4105121;28;20008;-54
2022/06/03 12:04:37;;;;;;;;;;;15.40;60.90;;;;;;4105936;28;19936;-55
2022/06/03 12:06:41;;;;;;;;;;;15.40;60.80;;;;;;4105268;28;19929;-55
2022/06/03 12:08:42;;;;;;;;;;;15.40;60.90;;;;;;4114148;28;20579;-57
2022/06/03 12:10:53;;;;;;;;;;;15.40;60.90;;;;;;4105775;28;20277;-55
2022/06/03 12:13:17;;;;;;;;;;;15.40;60.90;;;;;;4105448;28;20469;-53
2022/06/03 12:15:31;;;;;;;;;;;15.40;61.00;;;;;;4114379;28;19933;-47
2022/06/03 12:17:33;;;;;;;;;;;15.40;61.00;;;;;;4112100;28;19987;-47
2022/06/03 12:19:36;;;;;;;;;;;15.30;61.80;;;;;;4107364;28;20317;-46
2022/06/03 12:21:38;;;;;;;;;;;15.40;62.10;;;;;;4118608;28;20006;-49
2022/06/03 12:23:43;;;;;;;;;;;15.40;62.10;;;;;;4106911;28;20779;-48
2022/06/03 12:26:04;;;;;;;;;;;15.40;62.20;;;;;;4113743;28;19932;-48
2022/06/03 12:28:08;;;;;;;;;;;15.50;62.20;;;;;;4106266;28;19960;-44
2022/06/03 12:30:10;;;;;;;;;;;15.50;62.20;;;;;;4113577;28;19933;-46
2022/06/03 12:32:17;;;;;;;;;;;15.50;62.30;;;;;;4103732;28;19936;-44
2022/06/03 12:34:24;;;;;;;;;;;15.50;62.30;;;;;;4104565;28;19925;-46
2022/06/03 12:36:25;;;;;;;;;;;15.50;62.40;;;;;;4104826;28;20002;-53
2022/06/03 12:38:47;;;;;;;;;;;15.50;62.40;;;;;;4113361;28;20028;-48
2022/06/03 12:40:49;;;;;;;;;;;15.50;62.50;;;;;;4094475;28;20293;-48
2022/06/03 12:42:52;;;;;;;;;;;15.60;62.70;;;;;;4112637;28;20491;-47
2022/06/03 12:45:03;;;;;;;;;;;15.60;62.60;;;;;;4101825;28;19929;-52
2022/06/03 12:47:23;;;;;;;;;;;15.60;62.70;;;;;;4104615;28;20023;-48
2022/06/03 12:49:25;;;;;;;;;;;15.60;62.70;;;;;;4112945;28;20780;-53
2022/06/03 12:51:33;;;;;;;;;;;15.60;63.50;;;;;;4104849;28;20044;-49
2022/06/03 12:53:42;;;;;;;;;;;15.60;62.70;;;;;;4104137;28;19924;-54
2022/06/03 12:55:45;;;;;;;;;;;15.60;62.30;;;;;;4099356;28;19948;-53
2022/06/03 12:57:46;;;;;;;;;;;15.60;62.10;;;;;;4115168;28;20457;-47
2022/06/03 13:00:07;;;;;;;;;;;15.60;62.40;;;;;;4110805;28;19929;-46
2022/06/03 13:02:14;;;;;;;;;;;15.60;63.10;;;;;;4115180;28;20030;-47
2022/06/03 13:04:34;;;;;;;;;;;15.60;63.30;;;;;;4114813;28;19928;-45